Terminal Aerodrome Forecast
Issued by NWS

Home | Current Version | Previous Version | Text Only | Print | Product List | Glossary On
Versions: 1 2 3 4 5 6 7 8 9 10 11 12 13 14 15 16 17 18 19 20 21 22 23 24
261
FTUS43 KICT 251724
TAFSLN
TAF
KSLN 251724Z 2518/2618 34012KT P6SM VCSH OVC012
     FM260000 36008KT P6SM BKN015
     FM260900 03004KT 5SM BR BKN015
     FM261400 10004KT P6SM BKN025=

USA.gov is the U.S. government's official web portal to all federal, state and local government web resources and services.